地図

経路データ

SID SEASON NUMBER BASIN SUBBASIN NAME ISO_TIME NATURE LAT LON WMO_WIND WMO_PRES WMO_AGENCY TRACK_TYPE DIST2LAND LANDFALL IFLAG USA_AGENCY USA_ATCF_ID USA_LAT USA_LON USA_RECORD USA_STATUS USA_WIND USA_PRES USA_SSHS USA_R34_NE USA_R34_SE USA_R34_SW USA_R34_NW USA_R50_NE USA_R50_SE USA_R50_SW USA_R50_NW USA_R64_NE USA_R64_SE USA_R64_SW USA_R64_NW USA_POCI USA_ROCI USA_RMW USA_EYE TOKYO_LAT TOKYO_LON TOKYO_GRADE TOKYO_WIND TOKYO_PRES TOKYO_R50_DIR TOKYO_R50_LONG TOKYO_R50_SHORT TOKYO_R30_DIR TOKYO_R30_LONG TOKYO_R30_SHORT TOKYO_LAND CMA_LAT CMA_LON CMA_CAT CMA_WIND CMA_PRES HKO_LAT HKO_LON HKO_CAT HKO_WIND HKO_PRES NEWDELHI_LAT NEWDELHI_LON NEWDELHI_GRADE NEWDELHI_WIND NEWDELHI_PRES NEWDELHI_CI NEWDELHI_DP NEWDELHI_POCI REUNION_LAT REUNION_LON REUNION_TYPE REUNION_WIND REUNION_PRES REUNION_TNUM REUNION_CI REUNION_RMW REUNION_R34_NE REUNION_R34_SE REUNION_R34_SW REUNION_R34_NW REUNION_R50_NE REUNION_R50_SE REUNION_R50_SW REUNION_R50_NW REUNION_R64_NE REUNION_R64_SE REUNION_R64_SW REUNION_R64_NW BOM_LAT BOM_LON BOM_TYPE BOM_WIND BOM_PRES BOM_TNUM BOM_CI BOM_RMW BOM_R34_NE BOM_R34_SE BOM_R34_SW BOM_R34_NW BOM_R50_NE BOM_R50_SE BOM_R50_SW BOM_R50_NW BOM_R64_NE BOM_R64_SE BOM_R64_SW BOM_R64_NW BOM_ROCI BOM_POCI BOM_EYE BOM_POS_METHOD BOM_PRES_METHOD NADI_LAT NADI_LON NADI_CAT NADI_WIND NADI_PRES WELLINGTON_LAT WELLINGTON_LON WELLINGTON_WIND WELLINGTON_PRES DS824_LAT DS824_LON DS824_STAGE DS824_WIND DS824_PRES TD9636_LAT TD9636_LON TD9636_STAGE TD9636_WIND TD9636_PRES TD9635_LAT TD9635_LON TD9635_WIND TD9635_PRES TD9635_ROCI NEUMANN_LAT NEUMANN_LON NEUMANN_CLASS NEUMANN_WIND NEUMANN_PRES MLC_LAT MLC_LON MLC_CLASS MLC_WIND MLC_PRES USA_GUST BOM_GUST BOM_GUST_PER REUNION_GUST REUNION_GUST_PER USA_SEAHGT USA_SEARAD_NE USA_SEARAD_SE USA_SEARAD_SW USA_SEARAD_NW STORM_SPEED STORM_DIR
1973358N09119 1973 141 WP MM NOT_NAMED 1973-12-24 00:00:00 TS 9.00000 118.500 main 31 0 __O___________ -1 9.00000 118.500 0 19 1007 10 262
1973358N09119 1973 141 WP MM NOT_NAMED 1973-12-24 03:00:00 TS 8.93266 117.990 main 0 0 __P___________ -1 8.93266 117.990 0 19 1007 10 259
1973358N09119 1973 141 WP MM NOT_NAMED 1973-12-24 06:00:00 TS 8.80000 117.500 main 0 0 __O___________ -1 8.80000 117.500 0 19 1007 10 249
1973358N09119 1973 141 WP MM NOT_NAMED 1973-12-24 09:00:00 TS 8.56492 117.042 main 33 31 __P___________ -1 8.56492 117.042 0 21 1007 10 241
1973358N09119 1973 141 WP MM NOT_NAMED 1973-12-24 12:00:00 TS 8.30000 116.600 main 66 66 __O___________ -1 8.30000 116.600 1 23 1007 10 242
1973358N09119 1973 141 WP MM NOT_NAMED 1973-12-24 15:00:00 TS 8.09250 116.135 main 123 123 __P___________ -1 8.09250 116.135 1 26 1006 10 246
1973358N09119 1973 141 WP MM NOT_NAMED 1973-12-24 18:00:00 TS 7.90000 115.700 main 157 157 __O___________ -1 7.90000 115.700 1 29 1006 9 244
1973358N09119 1973 141 WP MM NOT_NAMED 1973-12-24 21:00:00 TS 7.69995 115.328 main 178 178 __P___________ -1 7.69995 115.328 1 29 1006 8 240
1973358N09119 1973 141 WP MM NOT_NAMED 1973-12-25 00:00:00 TS 7.50000 115.000 main 196 196 __O___________ -1 7.50000 115.000 1 29 1006 8 237
1973358N09119 1973 141 WP MM NOT_NAMED 1973-12-25 03:00:00 TS 7.29248 114.685 main 204 204 __P___________ -1 7.29248 114.685 1 26 1006 7 236
1973358N09119 1973 141 WP MM NOT_NAMED 1973-12-25 06:00:00 TS 7.10000 114.400 main 215 214 __O___________ -1 7.10000 114.400 1 23 1006 6 238
1973358N09119 1973 141 WP MM NOT_NAMED 1973-12-25 09:00:00 TS 6.95746 114.150 main 221 220 __P___________ -1 6.95746 114.150 1 23 1006 6 239
1973358N09119 1973 141 WP MM NOT_NAMED 1973-12-25 12:00:00 TS 6.80000 113.900 main 228 224 __O___________ -1 6.80000 113.900 1 23 1007 7 234
1973358N09119 1973 141 WP MM NOT_NAMED 1973-12-25 15:00:00 TS 6.55003 113.585 main 228 201 __P___________ -1 6.55003 113.585 1 21 1007 8 230
1973358N09119 1973 141 WP MM NOT_NAMED 1973-12-25 18:00:00 TS 6.30000 113.300 main 205 200 __O___________ -1 6.30000 113.300 0 19 1007 6 228
1973358N09119 1973 141 WP MM NOT_NAMED 1973-12-25 21:00:00 TS 6.14247 113.128 main 195 192 __P___________ -1 6.14247 113.128 0 19 1007 4 225
1973358N09119 1973 141 WP MM NOT_NAMED 1973-12-26 00:00:00 TS 6.00000 113.000 main 192 181 __O___________ -1 6.00000 113.000 0 19 1008 4 220
1973358N09119 1973 141 WP MM NOT_NAMED 1973-12-26 03:00:00 TS 5.80750 112.850 main 181 181 __P___________ -1 5.80750 112.850 0 19 1008 5 217
1973358N09119 1973 141 WP MM NOT_NAMED 1973-12-26 06:00:00 TS 5.60000 112.700 main 182 175 __O___________ -1 5.60000 112.700 0 19 1008 5 217
1973358N09119 1973 141 WP MM NOT_NAMED 1973-12-26 09:00:00 TS 5.40000 112.543 main 188 183 __P___________ -1 5.40000 112.543 0 19 1008 5 217
1973358N09119 1973 141 WP MM NOT_NAMED 1973-12-26 12:00:00 TS 5.20000 112.400 main 189 181 __O___________ -1 5.20000 112.400 0 19 1008 5 212
1973358N09119 1973 141 WP MM NOT_NAMED 1973-12-26 15:00:00 TS 4.99250 112.293 main 181 173 __P___________ -1 4.99250 112.293 0 19 1008 5 206
1973358N09119 1973 141 WP MM NOT_NAMED 1973-12-26 18:00:00 TS 4.80000 112.200 main 174 167 __O___________ -1 4.80000 112.200 0 19 1008 4 208
1973358N09119 1973 141 WP MM NOT_NAMED 1973-12-26 21:00:00 TS 4.64000 112.102 main 169 169 __P___________ -1 4.64000 112.102 0 19 1008 4 213
1973358N09119 1973 141 WP MM NOT_NAMED 1973-12-27 00:00:00 TS 4.50000 112.000 main 174 __O___________ -1 4.50000 112.000 0 19 1008 3 218

デジタル台風データ・検索

IBTrACS Databaseについて

本データベースは、米国NOAAが公開する1842年以降の世界の熱帯低気圧のベストトラックデータアーカイブInternational Best Track Archive for Climate Stewardship (IBTrACS)を、ウェブで閲覧しやすい形式に変換したものです。

最終更新日:2021-12-03